Oasis of the Seas — C6XS7 — position and weather

sailwx.info

Track history (hours):
 
Tides and Currents Weather Stations Pressure Air Temp Water Temp Dewpoint Dewpoint Depression Visibility Wind Speed Wind Dir Waves Ship Positions

Oasis of the Seas

Last reported at 2014-Sep-01 13:30 UTC. Time now 2014-Sep-01 13:53 UTC.
Position N 26°05' W 080°07'.

Length 360 m; draft 9.3 m.

Type: Passenger vessel. MMSI: 311020600.

Date/timePositionNaut miles runAvg speedWind from/ knotsBaromVisibWave heightAir tempDewpointWater temp
2014-Sep-01 13:30N 26°05' W 080°07'0 0.0
2014-Sep-01 12:27N 26°05' W 080°07'0 0.0
2014-Sep-01 11:27N 26°05' W 080°07'0 0.0
2014-Sep-01 10:27N 26°05' W 080°07'0 0.3
2014-Sep-01 09:33N 26°05' W 080°07'1010.4
2014-Sep-01 08:33N 26°06' W 079°56'1413.9
2014-Sep-01 07:33N 26°09' W 079°40'1515.3
2014-Sep-01 06:33N 26°13' W 079°24'24 0.7
2014-Aug-30 22:33N 26°07' W 079°50'1313.0
2014-Aug-30 21:34N 26°06' W 080°04'3 2.7
2014-Aug-30 20:24N 26°05' W 080°07'0 0.0
2014-Aug-30 19:28N 26°05' W 080°07'0 0.0
2014-Aug-30 18:27N 26°05' W 080°07'0 0.0
2014-Aug-30 17:28N 26°05' W 080°07'0 0.0
2014-Aug-30 16:25N 26°05' W 080°07'0 0.0
2014-Aug-30 15:30N 26°05' W 080°07'0 0.0
2014-Aug-30 14:30N 26°05' W 080°07'0 0.0
2014-Aug-30 13:32N 26°05' W 080°07'0 0.0
2014-Aug-30 12:23N 26°05' W 080°07'0 0.0
2014-Aug-30 11:23N 26°05' W 080°07'0 0.0
2014-Aug-30 10:20N 26°05' W 080°07'0 0.3
2014-Aug-30 09:33N 26°05' W 080°07'1313.1
2014-Aug-30 08:33N 26°07' W 079°53'1717.1
2014-Aug-30 07:33N 26°09' W 079°34'  
2014-Aug-28 00:00N 18°24' W 063°42'2617.7 080 / 261017.0 2.5 30.0
2014-Aug-27 22:33N 18°08' W 063°21'18 1.6
2014-Aug-27 11:22N 18°00' W 063°03'9 8.7
2014-Aug-27 10:18N 18°00' W 063°13'7 8.8
2014-Aug-27 09:31N 18°00' W 063°20'9 8.9
2014-Aug-27 08:32N 18°00' W 063°30'9 8.8
2014-Aug-27 07:33N 18°01' W 063°39'10 8.8
2014-Aug-27 06:25N 18°01' W 063°49'  
2014-Aug-23 21:33N 26°06' W 080°06'1 1.3
2014-Aug-23 20:31N 26°05' W 080°07'0 0.0
2014-Aug-23 19:31N 26°05' W 080°07'  
Track history (hours):
 
Tides and Currents Weather Stations Pressure Air Temp Water Temp Dewpoint Dewpoint Depression Visibility Wind Speed Wind Dir Waves Ship Positions

Oasis of the Seas

Last reported at 2014-Sep-01 13:30 UTC. Time now 2014-Sep-01 13:53 UTC.
Position N 26°05' W 080°07'.

Length 360 m; draft 9.3 m.

Type: Passenger vessel. MMSI: 311020600.

Date/timePositionNaut miles runAvg speedWind from/ knotsBaromVisibWave heightAir tempDewpointWater temp
2014-Sep-01 13:30N 26°05' W 080°07'0 0.0
2014-Sep-01 12:27N 26°05' W 080°07'0 0.0
2014-Sep-01 11:27N 26°05' W 080°07'0 0.0
2014-Sep-01 10:27N 26°05' W 080°07'0 0.3
2014-Sep-01 09:33N 26°05' W 080°07'1010.4
2014-Sep-01 08:33N 26°06' W 079°56'1413.9
2014-Sep-01 07:33N 26°09' W 079°40'1515.3
2014-Sep-01 06:33N 26°13' W 079°24'24 0.7
2014-Aug-30 22:33N 26°07' W 079°50'1313.0
2014-Aug-30 21:34N 26°06' W 080°04'3 2.7
2014-Aug-30 20:24N 26°05' W 080°07'0 0.0
2014-Aug-30 19:28N 26°05' W 080°07'0 0.0
2014-Aug-30 18:27N 26°05' W 080°07'0 0.0
2014-Aug-30 17:28N 26°05' W 080°07'0 0.0
2014-Aug-30 16:25N 26°05' W 080°07'0 0.0
2014-Aug-30 15:30N 26°05' W 080°07'0 0.0
2014-Aug-30 14:30N 26°05' W 080°07'0 0.0
2014-Aug-30 13:32N 26°05' W 080°07'0 0.0
2014-Aug-30 12:23N 26°05' W 080°07'0 0.0
2014-Aug-30 11:23N 26°05' W 080°07'0 0.0
2014-Aug-30 10:20N 26°05' W 080°07'0 0.3
2014-Aug-30 09:33N 26°05' W 080°07'1313.1
2014-Aug-30 08:33N 26°07' W 079°53'1717.1
2014-Aug-30 07:33N 26°09' W 079°34'  
2014-Aug-28 00:00N 18°24' W 063°42'2617.7 080 / 261017.0 2.5 30.0
2014-Aug-27 22:33N 18°08' W 063°21'18 1.6
2014-Aug-27 11:22N 18°00' W 063°03'9 8.7
2014-Aug-27 10:18N 18°00' W 063°13'7 8.8
2014-Aug-27 09:31N 18°00' W 063°20'9 8.9
2014-Aug-27 08:32N 18°00' W 063°30'9 8.8
2014-Aug-27 07:33N 18°01' W 063°39'10 8.8
2014-Aug-27 06:25N 18°01' W 063°49'  
2014-Aug-23 21:33N 26°06' W 080°06'1 1.3
2014-Aug-23 20:31N 26°05' W 080°07'0 0.0
2014-Aug-23 19:31N 26°05' W 080°07'  

Dump ship's entire track history